sensor_id;sensor_type;location;lat;lon;timestamp;temperature;humidity
78516;SHT31;67815;51.990;5.688;2023-12-14T00:02:13;9.9;71.5
78516;SHT31;67815;51.990;5.688;2023-12-14T00:04:42;9.9;71.2
78516;SHT31;67815;51.990;5.688;2023-12-14T00:07:12;9.8;71.1
78516;SHT31;67815;51.990;5.688;2023-12-14T00:09:43;9.8;71.2
78516;SHT31;67815;51.990;5.688;2023-12-14T00:12:13;9.8;71.4
78516;SHT31;67815;51.990;5.688;2023-12-14T00:14:42;9.8;71.5
78516;SHT31;67815;51.990;5.688;2023-12-14T00:17:12;9.8;71.4
78516;SHT31;67815;51.990;5.688;2023-12-14T00:19:42;9.8;71.6
78516;SHT31;67815;51.990;5.688;2023-12-14T00:22:14;9.7;71.2
78516;SHT31;67815;51.990;5.688;2023-12-14T00:24:43;9.7;71.7
78516;SHT31;67815;51.990;5.688;2023-12-14T00:27:13;9.6;72.0
78516;SHT31;67815;51.990;5.688;2023-12-14T00:29:42;9.6;72.3
78516;SHT31;67815;51.990;5.688;2023-12-14T00:32:12;9.6;72.5
78516;SHT31;67815;51.990;5.688;2023-12-14T00:34:41;9.6;72.4
78516;SHT31;67815;51.990;5.688;2023-12-14T00:37:11;9.5;72.4
78516;SHT31;67815;51.990;5.688;2023-12-14T00:39:42;9.5;72.3
78516;SHT31;67815;51.990;5.688;2023-12-14T00:42:12;9.5;72.0
78516;SHT31;67815;51.990;5.688;2023-12-14T00:44:41;9.5;72.1
78516;SHT31;67815;51.990;5.688;2023-12-14T00:47:11;9.4;72.3
78516;SHT31;67815;51.990;5.688;2023-12-14T00:49:40;9.4;72.3
78516;SHT31;67815;51.990;5.688;2023-12-14T00:52:09;9.4;72.6
78516;SHT31;67815;51.990;5.688;2023-12-14T00:54:39;9.3;72.5
78516;SHT31;67815;51.990;5.688;2023-12-14T00:57:08;9.3;72.4
78516;SHT31;67815;51.990;5.688;2023-12-14T00:59:38;9.3;72.2
78516;SHT31;67815;51.990;5.688;2023-12-14T01:02:08;9.3;72.5
78516;SHT31;67815;51.990;5.688;2023-12-14T01:04:37;9.3;72.2
78516;SHT31;67815;51.990;5.688;2023-12-14T01:07:06;9.3;72.2
78516;SHT31;67815;51.990;5.688;2023-12-14T01:09:36;9.2;72.4
78516;SHT31;67815;51.990;5.688;2023-12-14T01:12:06;9.2;72.1
78516;SHT31;67815;51.990;5.688;2023-12-14T01:14:36;9.2;71.7
78516;SHT31;67815;51.990;5.688;2023-12-14T01:17:07;9.2;71.9
78516;SHT31;67815;51.990;5.688;2023-12-14T01:19:39;9.2;71.6
78516;SHT31;67815;51.990;5.688;2023-12-14T01:22:09;9.2;71.6
78516;SHT31;67815;51.990;5.688;2023-12-14T01:24:40;9.2;72.3
78516;SHT31;67815;51.990;5.688;2023-12-14T01:27:10;9.3;71.2
78516;SHT31;67815;51.990;5.688;2023-12-14T01:29:41;9.3;71.5
78516;SHT31;67815;51.990;5.688;2023-12-14T01:32:10;9.3;71.0
78516;SHT31;67815;51.990;5.688;2023-12-14T01:34:40;9.3;71.4
78516;SHT31;67815;51.990;5.688;2023-12-14T01:37:09;9.3;71.0
78516;SHT31;67815;51.990;5.688;2023-12-14T01:39:39;9.3;70.8
78516;SHT31;67815;51.990;5.688;2023-12-14T01:42:08;9.3;70.9
78516;SHT31;67815;51.990;5.688;2023-12-14T01:44:40;9.3;70.7
78516;SHT31;67815;51.990;5.688;2023-12-14T01:47:09;9.3;71.2
78516;SHT31;67815;51.990;5.688;2023-12-14T01:49:39;9.3;71.2
78516;SHT31;67815;51.990;5.688;2023-12-14T01:52:10;9.3;71.1
78516;SHT31;67815;51.990;5.688;2023-12-14T01:54:39;9.2;70.8
78516;SHT31;67815;51.990;5.688;2023-12-14T01:57:09;9.2;71.1
78516;SHT31;67815;51.990;5.688;2023-12-14T01:59:38;9.2;71.2
78516;SHT31;67815;51.990;5.688;2023-12-14T02:02:08;9.2;71.3
78516;SHT31;67815;51.990;5.688;2023-12-14T02:04:37;9.2;71.0
78516;SHT31;67815;51.990;5.688;2023-12-14T02:07:07;9.2;70.8
78516;SHT31;67815;51.990;5.688;2023-12-14T02:09:37;9.2;70.9
78516;SHT31;67815;51.990;5.688;2023-12-14T02:12:07;9.2;71.0
78516;SHT31;67815;51.990;5.688;2023-12-14T02:14:38;9.2;70.9
78516;SHT31;67815;51.990;5.688;2023-12-14T02:17:07;9.2;70.9
78516;SHT31;67815;51.990;5.688;2023-12-14T02:19:37;9.2;71.2
78516;SHT31;67815;51.990;5.688;2023-12-14T02:22:06;9.2;71.0
78516;SHT31;67815;51.990;5.688;2023-12-14T02:24:36;9.2;70.9
78516;SHT31;67815;51.990;5.688;2023-12-14T02:27:06;9.2;70.9
78516;SHT31;67815;51.990;5.688;2023-12-14T02:29:35;9.2;70.0
78516;SHT31;67815;51.990;5.688;2023-12-14T02:32:06;9.2;70.2
78516;SHT31;67815;51.990;5.688;2023-12-14T02:34:35;9.2;70.4
78516;SHT31;67815;51.990;5.688;2023-12-14T02:37:06;9.2;70.4
78516;SHT31;67815;51.990;5.688;2023-12-14T02:39:35;9.2;69.8
78516;SHT31;67815;51.990;5.688;2023-12-14T02:42:05;9.2;70.3
78516;SHT31;67815;51.990;5.688;2023-12-14T02:44:34;9.2;70.1
78516;SHT31;67815;51.990;5.688;2023-12-14T02:47:04;9.2;70.4
78516;SHT31;67815;51.990;5.688;2023-12-14T02:49:34;9.2;69.8
78516;SHT31;67815;51.990;5.688;2023-12-14T02:52:04;9.2;70.0
78516;SHT31;67815;51.990;5.688;2023-12-14T02:54:33;9.2;70.2
78516;SHT31;67815;51.990;5.688;2023-12-14T02:57:03;9.2;70.4
78516;SHT31;67815;51.990;5.688;2023-12-14T02:59:33;9.2;69.8
78516;SHT31;67815;51.990;5.688;2023-12-14T03:02:03;9.2;69.8
78516;SHT31;67815;51.990;5.688;2023-12-14T03:04:33;9.2;69.7
78516;SHT31;67815;51.990;5.688;2023-12-14T03:07:05;9.2;69.7
78516;SHT31;67815;51.990;5.688;2023-12-14T03:09:35;9.2;70.0
78516;SHT31;67815;51.990;5.688;2023-12-14T03:12:05;9.1;70.0
78516;SHT31;67815;51.990;5.688;2023-12-14T03:14:35;9.1;69.8
78516;SHT31;67815;51.990;5.688;2023-12-14T03:17:08;9.1;69.9
78516;SHT31;67815;51.990;5.688;2023-12-14T03:19:41;9.1;69.8
78516;SHT31;67815;51.990;5.688;2023-12-14T03:22:10;9.1;70.3
78516;SHT31;67815;51.990;5.688;2023-12-14T03:24:40;9.1;70.2
78516;SHT31;67815;51.990;5.688;2023-12-14T03:27:09;9.1;69.7
78516;SHT31;67815;51.990;5.688;2023-12-14T03:29:39;9.1;69.7
78516;SHT31;67815;51.990;5.688;2023-12-14T03:32:08;9.1;69.5
78516;SHT31;67815;51.990;5.688;2023-12-14T03:34:38;9.1;69.8
78516;SHT31;67815;51.990;5.688;2023-12-14T03:37:08;9.1;69.8
78516;SHT31;67815;51.990;5.688;2023-12-14T03:39:40;9.1;70.3
78516;SHT31;67815;51.990;5.688;2023-12-14T03:42:09;9.1;70.1
78516;SHT31;67815;51.990;5.688;2023-12-14T03:44:39;9.1;70.2
78516;SHT31;67815;51.990;5.688;2023-12-14T03:47:09;9.1;70.2
78516;SHT31;67815;51.990;5.688;2023-12-14T03:49:39;9.1;70.4
78516;SHT31;67815;51.990;5.688;2023-12-14T03:52:09;9.1;69.9
78516;SHT31;67815;51.990;5.688;2023-12-14T03:54:39;9.1;70.1
78516;SHT31;67815;51.990;5.688;2023-12-14T03:57:08;9.1;70.4
78516;SHT31;67815;51.990;5.688;2023-12-14T03:59:40;9.1;69.9
78516;SHT31;67815;51.990;5.688;2023-12-14T04:02:10;9.1;70.4
78516;SHT31;67815;51.990;5.688;2023-12-14T04:04:40;9.1;70.1
78516;SHT31;67815;51.990;5.688;2023-12-14T04:07:09;9.1;69.8
78516;SHT31;67815;51.990;5.688;2023-12-14T04:09:39;9.1;69.3
78516;SHT31;67815;51.990;5.688;2023-12-14T04:12:09;9.1;69.6
78516;SHT31;67815;51.990;5.688;2023-12-14T04:14:38;9.0;69.6
78516;SHT31;67815;51.990;5.688;2023-12-14T04:17:08;9.0;69.7
78516;SHT31;67815;51.990;5.688;2023-12-14T04:19:39;9.0;69.8
78516;SHT31;67815;51.990;5.688;2023-12-14T04:22:09;9.0;70.3
78516;SHT31;67815;51.990;5.688;2023-12-14T04:24:38;9.0;70.3
78516;SHT31;67815;51.990;5.688;2023-12-14T04:27:07;9.0;70.0
78516;SHT31;67815;51.990;5.688;2023-12-14T04:29:37;9.0;70.0
78516;SHT31;67815;51.990;5.688;2023-12-14T04:32:08;9.0;70.1
78516;SHT31;67815;51.990;5.688;2023-12-14T04:34:38;9.0;69.6
78516;SHT31;67815;51.990;5.688;2023-12-14T04:37:10;9.0;69.8
78516;SHT31;67815;51.990;5.688;2023-12-14T04:39:39;9.0;70.1
78516;SHT31;67815;51.990;5.688;2023-12-14T04:42:09;9.0;69.8
78516;SHT31;67815;51.990;5.688;2023-12-14T04:44:38;9.0;69.2
78516;SHT31;67815;51.990;5.688;2023-12-14T04:47:08;9.0;69.6
78516;SHT31;67815;51.990;5.688;2023-12-14T04:49:38;9.0;69.4
78516;SHT31;67815;51.990;5.688;2023-12-14T04:52:07;8.9;69.7
78516;SHT31;67815;51.990;5.688;2023-12-14T04:54:37;8.9;69.4
78516;SHT31;67815;51.990;5.688;2023-12-14T04:57:08;8.9;69.6
78516;SHT31;67815;51.990;5.688;2023-12-14T04:59:37;8.9;69.3
78516;SHT31;67815;51.990;5.688;2023-12-14T05:02:10;8.9;69.2
78516;SHT31;67815;51.990;5.688;2023-12-14T05:04:39;8.9;69.4
78516;SHT31;67815;51.990;5.688;2023-12-14T05:07:09;8.9;69.8
78516;SHT31;67815;51.990;5.688;2023-12-14T05:09:38;8.9;69.8
78516;SHT31;67815;51.990;5.688;2023-12-14T05:12:08;8.9;69.3
78516;SHT31;67815;51.990;5.688;2023-12-14T05:14:37;8.9;69.9
78516;SHT31;67815;51.990;5.688;2023-12-14T05:17:08;8.9;70.7
78516;SHT31;67815;51.990;5.688;2023-12-14T05:19:38;8.9;70.4
78516;SHT31;67815;51.990;5.688;2023-12-14T05:22:07;9.0;70.0
78516;SHT31;67815;51.990;5.688;2023-12-14T05:24:37;9.0;69.3
78516;SHT31;67815;51.990;5.688;2023-12-14T05:27:07;9.0;68.8
78516;SHT31;67815;51.990;5.688;2023-12-14T05:29:36;9.0;68.8
78516;SHT31;67815;51.990;5.688;2023-12-14T05:32:06;9.0;69.1
78516;SHT31;67815;51.990;5.688;2023-12-14T05:34:35;9.0;69.4
78516;SHT31;67815;51.990;5.688;2023-12-14T05:37:05;9.0;69.0
78516;SHT31;67815;51.990;5.688;2023-12-14T05:39:35;9.0;69.2
78516;SHT31;67815;51.990;5.688;2023-12-14T05:42:05;9.0;69.8
78516;SHT31;67815;51.990;5.688;2023-12-14T05:44:35;9.0;69.3
78516;SHT31;67815;51.990;5.688;2023-12-14T05:47:05;9.0;69.4
78516;SHT31;67815;51.990;5.688;2023-12-14T05:49:40;9.0;68.6
78516;SHT31;67815;51.990;5.688;2023-12-14T05:52:10;9.0;68.9
78516;SHT31;67815;51.990;5.688;2023-12-14T05:54:39;9.0;68.4
78516;SHT31;67815;51.990;5.688;2023-12-14T05:57:09;9.0;68.5
78516;SHT31;67815;51.990;5.688;2023-12-14T05:59:41;8.9;68.4
78516;SHT31;67815;51.990;5.688;2023-12-14T06:02:10;8.9;68.2
78516;SHT31;67815;51.990;5.688;2023-12-14T06:04:40;8.9;69.2
78516;SHT31;67815;51.990;5.688;2023-12-14T06:07:11;8.9;68.1
78516;SHT31;67815;51.990;5.688;2023-12-14T06:09:44;8.9;68.7
78516;SHT31;67815;51.990;5.688;2023-12-14T06:12:14;8.9;68.5
78516;SHT31;67815;51.990;5.688;2023-12-14T06:14:45;8.9;68.5
78516;SHT31;67815;51.990;5.688;2023-12-14T06:17:15;8.9;68.3
78516;SHT31;67815;51.990;5.688;2023-12-14T06:19:44;8.9;68.9
78516;SHT31;67815;51.990;5.688;2023-12-14T06:22:14;8.9;68.7
78516;SHT31;67815;51.990;5.688;2023-12-14T06:24:44;8.9;69.0
78516;SHT31;67815;51.990;5.688;2023-12-14T06:27:14;8.9;68.8
78516;SHT31;67815;51.990;5.688;2023-12-14T06:29:43;8.9;68.7
78516;SHT31;67815;51.990;5.688;2023-12-14T06:32:15;8.9;68.1
78516;SHT31;67815;51.990;5.688;2023-12-14T06:34:44;8.9;69.0
78516;SHT31;67815;51.990;5.688;2023-12-14T06:37:13;8.9;68.0
78516;SHT31;67815;51.990;5.688;2023-12-14T06:39:43;8.9;68.2
78516;SHT31;67815;51.990;5.688;2023-12-14T06:42:13;8.8;68.1
78516;SHT31;67815;51.990;5.688;2023-12-14T06:44:43;8.8;68.2
78516;SHT31;67815;51.990;5.688;2023-12-14T06:47:13;8.8;68.3
78516;SHT31;67815;51.990;5.688;2023-12-14T06:49:43;8.9;68.1
78516;SHT31;67815;51.990;5.688;2023-12-14T06:52:15;8.9;68.1
78516;SHT31;67815;51.990;5.688;2023-12-14T06:54:44;8.9;68.4
78516;SHT31;67815;51.990;5.688;2023-12-14T06:57:14;8.9;68.0
78516;SHT31;67815;51.990;5.688;2023-12-14T06:59:45;8.9;68.4
78516;SHT31;67815;51.990;5.688;2023-12-14T07:02:15;8.9;68.1
78516;SHT31;67815;51.990;5.688;2023-12-14T07:04:45;8.9;67.3
78516;SHT31;67815;51.990;5.688;2023-12-14T07:07:15;8.9;67.8
78516;SHT31;67815;51.990;5.688;2023-12-14T07:09:45;8.8;66.0
78516;SHT31;67815;51.990;5.688;2023-12-14T07:12:16;8.8;66.5
78516;SHT31;67815;51.990;5.688;2023-12-14T07:14:45;8.8;66.0
78516;SHT31;67815;51.990;5.688;2023-12-14T07:17:15;8.8;66.4
78516;SHT31;67815;51.990;5.688;2023-12-14T07:19:44;8.8;65.6
78516;SHT31;67815;51.990;5.688;2023-12-14T07:22:14;8.7;66.2
78516;SHT31;67815;51.990;5.688;2023-12-14T07:24:43;8.7;66.6
78516;SHT31;67815;51.990;5.688;2023-12-14T07:27:13;8.7;66.3
78516;SHT31;67815;51.990;5.688;2023-12-14T07:29:42;8.6;66.4
78516;SHT31;67815;51.990;5.688;2023-12-14T07:32:12;8.6;67.0
78516;SHT31;67815;51.990;5.688;2023-12-14T07:34:42;8.6;66.8
78516;SHT31;67815;51.990;5.688;2023-12-14T07:37:13;8.6;66.6
78516;SHT31;67815;51.990;5.688;2023-12-14T07:39:42;8.5;66.5
78516;SHT31;67815;51.990;5.688;2023-12-14T07:42:12;8.5;67.0
78516;SHT31;67815;51.990;5.688;2023-12-14T07:44:47;8.5;66.2
78516;SHT31;67815;51.990;5.688;2023-12-14T07:47:16;8.5;66.5
78516;SHT31;67815;51.990;5.688;2023-12-14T07:49:45;8.5;66.6
78516;SHT31;67815;51.990;5.688;2023-12-14T07:52:15;8.5;66.7
78516;SHT31;67815;51.990;5.688;2023-12-14T07:54:45;8.5;66.5
78516;SHT31;67815;51.990;5.688;2023-12-14T07:57:14;8.4;66.2
78516;SHT31;67815;51.990;5.688;2023-12-14T07:59:45;8.4;65.9
78516;SHT31;67815;51.990;5.688;2023-12-14T08:02:14;8.4;66.4
78516;SHT31;67815;51.990;5.688;2023-12-14T08:04:44;8.4;66.8
78516;SHT31;67815;51.990;5.688;2023-12-14T08:07:13;8.4;66.6
78516;SHT31;67815;51.990;5.688;2023-12-14T08:09:43;8.4;67.3
78516;SHT31;67815;51.990;5.688;2023-12-14T08:12:14;8.4;67.5
78516;SHT31;67815;51.990;5.688;2023-12-14T08:14:44;8.4;67.3
78516;SHT31;67815;51.990;5.688;2023-12-14T08:17:13;8.4;67.6
78516;SHT31;67815;51.990;5.688;2023-12-14T08:19:44;8.5;66.8
78516;SHT31;67815;51.990;5.688;2023-12-14T08:22:15;8.5;67.8
78516;SHT31;67815;51.990;5.688;2023-12-14T08:24:46;8.5;65.6
78516;SHT31;67815;51.990;5.688;2023-12-14T08:27:16;8.5;66.3
78516;SHT31;67815;51.990;5.688;2023-12-14T08:29:45;8.5;65.9
78516;SHT31;67815;51.990;5.688;2023-12-14T08:32:17;8.5;65.9
78516;SHT31;67815;51.990;5.688;2023-12-14T08:34:47;8.5;67.1
78516;SHT31;67815;51.990;5.688;2023-12-14T08:37:17;8.5;66.8
78516;SHT31;67815;51.990;5.688;2023-12-14T08:39:46;8.4;65.6
78516;SHT31;67815;51.990;5.688;2023-12-14T08:42:16;8.4;65.1
78516;SHT31;67815;51.990;5.688;2023-12-14T08:44:45;8.4;64.5
78516;SHT31;67815;51.990;5.688;2023-12-14T08:47:15;8.4;64.7
78516;SHT31;67815;51.990;5.688;2023-12-14T08:49:46;8.4;65.4
78516;SHT31;67815;51.990;5.688;2023-12-14T08:52:15;8.4;65.7
78516;SHT31;67815;51.990;5.688;2023-12-14T08:54:45;8.4;65.9
78516;SHT31;67815;51.990;5.688;2023-12-14T08:57:15;8.4;65.7
78516;SHT31;67815;51.990;5.688;2023-12-14T08:59:44;8.4;66.0
78516;SHT31;67815;51.990;5.688;2023-12-14T09:02:14;8.4;66.8
78516;SHT31;67815;51.990;5.688;2023-12-14T09:04:43;8.4;66.2
78516;SHT31;67815;51.990;5.688;2023-12-14T09:07:13;8.5;66.0
78516;SHT31;67815;51.990;5.688;2023-12-14T09:09:42;8.5;66.2
78516;SHT31;67815;51.990;5.688;2023-12-14T09:12:12;8.5;65.0
78516;SHT31;67815;51.990;5.688;2023-12-14T09:14:42;8.5;65.4
78516;SHT31;67815;51.990;5.688;2023-12-14T09:17:11;8.5;66.0
78516;SHT31;67815;51.990;5.688;2023-12-14T09:19:41;8.5;66.4
78516;SHT31;67815;51.990;5.688;2023-12-14T09:22:10;8.5;67.8
78516;SHT31;67815;51.990;5.688;2023-12-14T09:24:40;8.5;67.8
78516;SHT31;67815;51.990;5.688;2023-12-14T09:27:10;8.6;68.2
78516;SHT31;67815;51.990;5.688;2023-12-14T09:29:39;8.6;66.2
78516;SHT31;67815;51.990;5.688;2023-12-14T09:32:09;8.6;66.1
78516;SHT31;67815;51.990;5.688;2023-12-14T09:34:39;8.6;65.5
78516;SHT31;67815;51.990;5.688;2023-12-14T09:37:11;8.6;63.7
78516;SHT31;67815;51.990;5.688;2023-12-14T09:39:41;8.6;64.1
78516;SHT31;67815;51.990;5.688;2023-12-14T09:42:18;8.6;65.7
78516;SHT31;67815;51.990;5.688;2023-12-14T09:44:51;8.6;66.1
78516;SHT31;67815;51.990;5.688;2023-12-14T09:47:24;8.6;66.1
78516;SHT31;67815;51.990;5.688;2023-12-14T09:49:54;8.6;66.2
78516;SHT31;67815;51.990;5.688;2023-12-14T09:52:24;8.6;66.5
78516;SHT31;67815;51.990;5.688;2023-12-14T09:54:53;8.6;66.0
78516;SHT31;67815;51.990;5.688;2023-12-14T09:57:23;8.6;65.8
78516;SHT31;67815;51.990;5.688;2023-12-14T09:59:54;8.6;65.6
78516;SHT31;67815;51.990;5.688;2023-12-14T10:02:27;8.6;65.2
78516;SHT31;67815;51.990;5.688;2023-12-14T10:04:58;8.7;64.0
78516;SHT31;67815;51.990;5.688;2023-12-14T10:07:28;8.7;63.8
78516;SHT31;67815;51.990;5.688;2023-12-14T10:10:12;8.6;63.3
78516;SHT31;67815;51.990;5.688;2023-12-14T10:12:53;8.6;63.8
78516;SHT31;67815;51.990;5.688;2023-12-14T10:15:25;8.6;65.0
78516;SHT31;67815;51.990;5.688;2023-12-14T10:17:55;8.6;64.8
78516;SHT31;67815;51.990;5.688;2023-12-14T10:20:25;8.6;65.0
78516;SHT31;67815;51.990;5.688;2023-12-14T10:22:55;8.6;65.9
78516;SHT31;67815;51.990;5.688;2023-12-14T10:25:25;8.6;65.1
78516;SHT31;67815;51.990;5.688;2023-12-14T10:27:54;8.6;65.7
78516;SHT31;67815;51.990;5.688;2023-12-14T10:30:24;8.6;65.0
78516;SHT31;67815;51.990;5.688;2023-12-14T10:32:55;8.6;64.4
78516;SHT31;67815;51.990;5.688;2023-12-14T10:35:24;8.6;63.8
78516;SHT31;67815;51.990;5.688;2023-12-14T10:37:55;8.6;64.2
78516;SHT31;67815;51.990;5.688;2023-12-14T10:40:28;8.6;64.2
78516;SHT31;67815;51.990;5.688;2023-12-14T10:43:00;8.6;64.6
78516;SHT31;67815;51.990;5.688;2023-12-14T10:45:33;8.6;64.7
78516;SHT31;67815;51.990;5.688;2023-12-14T10:48:06;8.6;64.2
78516;SHT31;67815;51.990;5.688;2023-12-14T10:50:36;8.6;64.5
78516;SHT31;67815;51.990;5.688;2023-12-14T10:53:06;8.6;65.6
78516;SHT31;67815;51.990;5.688;2023-12-14T10:55:42;8.6;66.1
78516;SHT31;67815;51.990;5.688;2023-12-14T10:58:12;8.7;66.3
78516;SHT31;67815;51.990;5.688;2023-12-14T11:00:42;8.7;66.6
78516;SHT31;67815;51.990;5.688;2023-12-14T11:03:15;8.7;64.7
78516;SHT31;67815;51.990;5.688;2023-12-14T11:05:47;8.7;65.3
78516;SHT31;67815;51.990;5.688;2023-12-14T11:08:16;8.7;65.7
78516;SHT31;67815;51.990;5.688;2023-12-14T11:10:54;8.7;65.5
78516;SHT31;67815;51.990;5.688;2023-12-14T11:13:24;8.8;66.2
78516;SHT31;67815;51.990;5.688;2023-12-14T11:15:54;8.8;64.2
78516;SHT31;67815;51.990;5.688;2023-12-14T11:18:26;8.8;64.3
78516;SHT31;67815;51.990;5.688;2023-12-14T11:20:57;8.8;65.7
78516;SHT31;67815;51.990;5.688;2023-12-14T11:23:31;8.8;65.8
78516;SHT31;67815;51.990;5.688;2023-12-14T11:26:04;8.8;65.7
78516;SHT31;67815;51.990;5.688;2023-12-14T11:28:36;8.8;66.9
78516;SHT31;67815;51.990;5.688;2023-12-14T11:31:09;8.8;63.9
78516;SHT31;67815;51.990;5.688;2023-12-14T11:33:40;8.8;64.2
78516;SHT31;67815;51.990;5.688;2023-12-14T11:36:12;8.8;65.1
78516;SHT31;67815;51.990;5.688;2023-12-14T11:38:43;8.8;65.3
78516;SHT31;67815;51.990;5.688;2023-12-14T11:41:16;8.8;66.2
78516;SHT31;67815;51.990;5.688;2023-12-14T11:43:47;8.8;65.2
78516;SHT31;67815;51.990;5.688;2023-12-14T11:46:18;8.8;63.5
78516;SHT31;67815;51.990;5.688;2023-12-14T11:48:47;8.8;64.6
78516;SHT31;67815;51.990;5.688;2023-12-14T11:51:18;8.9;65.4
78516;SHT31;67815;51.990;5.688;2023-12-14T11:53:49;8.9;66.2
78516;SHT31;67815;51.990;5.688;2023-12-14T11:56:19;8.9;64.6
78516;SHT31;67815;51.990;5.688;2023-12-14T11:58:50;8.9;62.9
78516;SHT31;67815;51.990;5.688;2023-12-14T12:01:21;8.9;63.7
78516;SHT31;67815;51.990;5.688;2023-12-14T12:03:53;8.9;64.4
78516;SHT31;67815;51.990;5.688;2023-12-14T12:06:25;9.0;64.0
78516;SHT31;67815;51.990;5.688;2023-12-14T12:08:55;9.0;64.7
78516;SHT31;67815;51.990;5.688;2023-12-14T12:11:25;9.0;65.2
78516;SHT31;67815;51.990;5.688;2023-12-14T12:13:56;9.0;64.7
78516;SHT31;67815;51.990;5.688;2023-12-14T12:16:27;9.1;64.9
78516;SHT31;67815;51.990;5.688;2023-12-14T12:18:56;9.1;65.3
78516;SHT31;67815;51.990;5.688;2023-12-14T12:21:26;9.1;65.0
78516;SHT31;67815;51.990;5.688;2023-12-14T12:23:55;9.1;63.1
78516;SHT31;67815;51.990;5.688;2023-12-14T12:26:25;9.1;62.2
78516;SHT31;67815;51.990;5.688;2023-12-14T12:28:54;9.2;62.7
78516;SHT31;67815;51.990;5.688;2023-12-14T12:31:25;9.2;62.5
78516;SHT31;67815;51.990;5.688;2023-12-14T12:33:55;9.2;62.9
78516;SHT31;67815;51.990;5.688;2023-12-14T12:36:24;9.2;64.6
78516;SHT31;67815;51.990;5.688;2023-12-14T12:38:54;9.2;64.5
78516;SHT31;67815;51.990;5.688;2023-12-14T12:41:23;9.2;64.4
78516;SHT31;67815;51.990;5.688;2023-12-14T12:43:53;9.2;64.4
78516;SHT31;67815;51.990;5.688;2023-12-14T12:46:23;9.2;63.7
78516;SHT31;67815;51.990;5.688;2023-12-14T12:48:55;9.2;64.5
78516;SHT31;67815;51.990;5.688;2023-12-14T12:51:24;9.2;62.3
78516;SHT31;67815;51.990;5.688;2023-12-14T12:53:56;9.2;64.2
78516;SHT31;67815;51.990;5.688;2023-12-14T12:56:27;9.2;62.6
78516;SHT31;67815;51.990;5.688;2023-12-14T12:58:57;9.2;63.1
78516;SHT31;67815;51.990;5.688;2023-12-14T13:01:26;9.2;64.4
78516;SHT31;67815;51.990;5.688;2023-12-14T13:03:56;9.2;63.3
78516;SHT31;67815;51.990;5.688;2023-12-14T13:06:26;9.2;64.0
78516;SHT31;67815;51.990;5.688;2023-12-14T13:08:56;9.2;63.6
78516;SHT31;67815;51.990;5.688;2023-12-14T13:11:25;9.2;65.3
78516;SHT31;67815;51.990;5.688;2023-12-14T13:13:55;9.2;65.4
78516;SHT31;67815;51.990;5.688;2023-12-14T13:16:24;9.2;65.2
78516;SHT31;67815;51.990;5.688;2023-12-14T13:18:54;9.2;65.3
78516;SHT31;67815;51.990;5.688;2023-12-14T13:21:24;9.2;64.9
78516;SHT31;67815;51.990;5.688;2023-12-14T13:23:57;9.2;64.9
78516;SHT31;67815;51.990;5.688;2023-12-14T13:26:26;9.2;65.5
78516;SHT31;67815;51.990;5.688;2023-12-14T13:28:56;9.2;65.2
78516;SHT31;67815;51.990;5.688;2023-12-14T13:31:26;9.2;65.6
78516;SHT31;67815;51.990;5.688;2023-12-14T13:33:55;9.2;65.7
78516;SHT31;67815;51.990;5.688;2023-12-14T13:36:24;9.2;67.2
78516;SHT31;67815;51.990;5.688;2023-12-14T13:38:54;9.2;66.0
78516;SHT31;67815;51.990;5.688;2023-12-14T13:41:24;9.2;64.3
78516;SHT31;67815;51.990;5.688;2023-12-14T13:43:54;9.2;65.4
78516;SHT31;67815;51.990;5.688;2023-12-14T13:46:23;9.2;65.6
78516;SHT31;67815;51.990;5.688;2023-12-14T13:48:52;9.2;65.8
78516;SHT31;67815;51.990;5.688;2023-12-14T13:51:22;9.2;65.4
78516;SHT31;67815;51.990;5.688;2023-12-14T13:53:52;9.2;64.5
78516;SHT31;67815;51.990;5.688;2023-12-14T13:56:21;9.2;65.4
78516;SHT31;67815;51.990;5.688;2023-12-14T13:58:52;9.2;65.2
78516;SHT31;67815;51.990;5.688;2023-12-14T14:01:21;9.2;65.0
78516;SHT31;67815;51.990;5.688;2023-12-14T14:03:52;9.2;65.3
78516;SHT31;67815;51.990;5.688;2023-12-14T14:06:21;9.2;65.8
78516;SHT31;67815;51.990;5.688;2023-12-14T14:08:51;9.2;66.1
78516;SHT31;67815;51.990;5.688;2023-12-14T14:11:22;9.2;66.7
78516;SHT31;67815;51.990;5.688;2023-12-14T14:13:52;9.2;67.2
78516;SHT31;67815;51.990;5.688;2023-12-14T14:16:22;9.2;66.8
78516;SHT31;67815;51.990;5.688;2023-12-14T14:18:51;9.2;66.6
78516;SHT31;67815;51.990;5.688;2023-12-14T14:21:21;9.2;65.6
78516;SHT31;67815;51.990;5.688;2023-12-14T14:23:50;9.3;65.8
78516;SHT31;67815;51.990;5.688;2023-12-14T14:26:20;9.3;66.6
78516;SHT31;67815;51.990;5.688;2023-12-14T14:28:49;9.3;66.9
78516;SHT31;67815;51.990;5.688;2023-12-14T14:31:22;9.3;67.2
78516;SHT31;67815;51.990;5.688;2023-12-14T14:33:51;9.3;65.2
78516;SHT31;67815;51.990;5.688;2023-12-14T14:36:21;9.3;64.3
78516;SHT31;67815;51.990;5.688;2023-12-14T14:38:51;9.2;65.1
78516;SHT31;67815;51.990;5.688;2023-12-14T14:41:24;9.2;66.6
78516;SHT31;67815;51.990;5.688;2023-12-14T14:43:54;9.2;67.2
78516;SHT31;67815;51.990;5.688;2023-12-14T14:46:24;9.2;67.6
78516;SHT31;67815;51.990;5.688;2023-12-14T14:48:54;9.2;67.7
78516;SHT31;67815;51.990;5.688;2023-12-14T14:51:25;9.2;67.9
78516;SHT31;67815;51.990;5.688;2023-12-14T14:53:57;9.2;68.2
78516;SHT31;67815;51.990;5.688;2023-12-14T14:56:26;9.2;69.0
78516;SHT31;67815;51.990;5.688;2023-12-14T14:58:56;9.2;68.9
78516;SHT31;67815;51.990;5.688;2023-12-14T15:01:26;9.2;68.3
78516;SHT31;67815;51.990;5.688;2023-12-14T15:03:55;9.2;68.2
78516;SHT31;67815;51.990;5.688;2023-12-14T15:06:25;9.3;68.9
78516;SHT31;67815;51.990;5.688;2023-12-14T15:08:55;9.3;68.7
78516;SHT31;67815;51.990;5.688;2023-12-14T15:11:24;9.3;68.6
78516;SHT31;67815;51.990;5.688;2023-12-14T15:13:55;9.3;68.2
78516;SHT31;67815;51.990;5.688;2023-12-14T15:16:25;9.3;66.5
78516;SHT31;67815;51.990;5.688;2023-12-14T15:18:55;9.3;67.8
78516;SHT31;67815;51.990;5.688;2023-12-14T15:21:26;9.3;67.5
78516;SHT31;67815;51.990;5.688;2023-12-14T15:23:56;9.3;67.7
78516;SHT31;67815;51.990;5.688;2023-12-14T15:26:25;9.3;67.6
78516;SHT31;67815;51.990;5.688;2023-12-14T15:28:59;9.3;68.5
78516;SHT31;67815;51.990;5.688;2023-12-14T15:31:29;9.3;68.6
78516;SHT31;67815;51.990;5.688;2023-12-14T15:34:00;9.3;68.3
78516;SHT31;67815;51.990;5.688;2023-12-14T15:36:31;9.3;68.1
78516;SHT31;67815;51.990;5.688;2023-12-14T15:39:01;9.3;68.6
78516;SHT31;67815;51.990;5.688;2023-12-14T15:41:32;9.3;68.7
78516;SHT31;67815;51.990;5.688;2023-12-14T15:44:01;9.3;68.9
78516;SHT31;67815;51.990;5.688;2023-12-14T15:46:31;9.2;69.0
78516;SHT31;67815;51.990;5.688;2023-12-14T15:49:00;9.2;69.2
78516;SHT31;67815;51.990;5.688;2023-12-14T15:51:33;9.2;69.3
78516;SHT31;67815;51.990;5.688;2023-12-14T15:54:03;9.2;69.0
78516;SHT31;67815;51.990;5.688;2023-12-14T15:56:33;9.2;69.0
78516;SHT31;67815;51.990;5.688;2023-12-14T15:59:02;9.2;68.6
78516;SHT31;67815;51.990;5.688;2023-12-14T16:01:34;9.2;67.7
78516;SHT31;67815;51.990;5.688;2023-12-14T16:04:07;9.2;68.2
78516;SHT31;67815;51.990;5.688;2023-12-14T16:06:39;9.2;68.4
78516;SHT31;67815;51.990;5.688;2023-12-14T16:09:09;9.2;69.0
78516;SHT31;67815;51.990;5.688;2023-12-14T16:11:38;9.2;68.4
78516;SHT31;67815;51.990;5.688;2023-12-14T16:14:08;9.2;69.0
78516;SHT31;67815;51.990;5.688;2023-12-14T16:16:37;9.2;69.3
78516;SHT31;67815;51.990;5.688;2023-12-14T16:19:07;9.2;68.9
78516;SHT31;67815;51.990;5.688;2023-12-14T16:21:36;9.3;68.7
78516;SHT31;67815;51.990;5.688;2023-12-14T16:24:07;9.3;68.7
78516;SHT31;67815;51.990;5.688;2023-12-14T16:26:36;9.2;68.7
78516;SHT31;67815;51.990;5.688;2023-12-14T16:29:09;9.2;69.0
78516;SHT31;67815;51.990;5.688;2023-12-14T16:31:42;9.2;69.1
78516;SHT31;67815;51.990;5.688;2023-12-14T16:34:13;9.2;69.5
78516;SHT31;67815;51.990;5.688;2023-12-14T16:36:46;9.2;69.8